Indian Creek Village, Florida
Current Conditions -  °F | °C
As of 1:53 PM on Friday 24 Oct 2014 (Local Time) from KOPF Reporting Station
Light Rain Light Rain  
Wind Chill: 78°   Ceiling: 3700
Heat Index: 80°   Visibility: 6mi
Dew Point: 71°   Wind: 14mph
Humidity: 79%   Direction: 40°NE
Pressure: 29.84"   Gusts: 25mph
Location:  25.882°N, 80.1292°W
Report Text: KOPF 241753Z 04012G22KT 6SM -RA SCT025 BKN037 OVC060 26/22 A2984 RMK AO2 SLP107 P0000 60000 T02560217 10261 20239 58016
Loading
Personal Weather Stations






























Interactive Weather Map
Tropical Storm Tracking
New forecast layout! Learn more

10-Day Weather Forecast

Advertisements
Track Severe Weather on mobile